Time;durP1;ratioP1;P1;durP2;ratioP2;P2;SDS_P1;SDS_P2;PMS_P1;PMS_P2;Temp;Humidity;BMP_temperature;BMP_pressure;BME280_temperature;BME280_humidity;BME280_pressure;Samples;Min_cycle;Max_cycle;Signal;HPM_P1;HPM_P2
2023/10/28 00:00:07;;;;;;;11.98;9.85;;;12.10;99.90;;;;;;5072132;28;20224;-85
2023/10/28 00:02:34;;;;;;;11.02;9.65;;;12.10;99.90;;;;;;5057522;28;20286;-81
2023/10/28 00:05:06;;;;;;;12.55;9.60;;;12.10;99.90;;;;;;5042730;28;20694;-86
2023/10/28 00:07:35;;;;;;;10.32;9.00;;;12.10;99.90;;;;;;5076623;28;20223;-88
2023/10/28 00:10:03;;;;;;;11.70;9.15;;;12.20;99.90;;;;;;5092302;28;20652;-82
2023/10/28 00:12:30;;;;;;;13.32;11.73;;;12.20;99.90;;;;;;5093025;28;20226;-82
2023/10/28 00:14:57;;;;;;;14.25;12.35;;;12.10;99.90;;;;;;5092893;28;20231;-82
2023/10/28 00:17:24;;;;;;;14.98;11.68;;;12.10;99.90;;;;;;5092947;28;20241;-82
2023/10/28 00:19:53;;;;;;;11.07;9.93;;;12.10;99.90;;;;;;5093003;28;20250;-81
2023/10/28 00:22:21;;;;;;;11.27;10.00;;;12.10;99.90;;;;;;5093587;28;20306;-86
2023/10/28 00:24:48;;;;;;;10.95;9.85;;;12.10;99.90;;;;;;5093944;28;20234;-85
2023/10/28 00:27:18;;;;;;;12.93;10.70;;;12.20;99.90;;;;;;5093225;28;20740;-81
2023/10/28 00:29:48;;;;;;;11.73;10.00;;;12.10;99.90;;;;;;5093267;28;20677;-81
2023/10/28 00:32:16;;;;;;;13.60;11.65;;;12.20;99.90;;;;;;5092127;28;20223;-82
2023/10/28 00:34:43;;;;;;;11.50;10.25;;;12.10;99.90;;;;;;5093633;28;20223;-81
2023/10/28 00:37:11;;;;;;;13.13;11.05;;;12.10;99.90;;;;;;5092810;28;20697;-81
2023/10/28 00:39:42;;;;;;;13.85;11.50;;;12.10;99.90;;;;;;5096569;28;20227;-85
2023/10/28 00:42:13;;;;;;;14.52;11.82;;;12.10;99.90;;;;;;5095576;28;20223;-85
2023/10/28 00:44:40;;;;;;;11.95;10.57;;;12.10;99.90;;;;;;5056663;28;20275;-85
2023/10/28 00:47:07;;;;;;;11.40;10.30;;;12.10;99.90;;;;;;5056254;28;20221;-82
2023/10/28 00:49:34;;;;;;;11.40;9.75;;;12.10;99.90;;;;;;5056682;28;20312;-86
2023/10/28 00:52:04;;;;;;;10.95;9.85;;;12.10;99.90;;;;;;5055457;28;20315;-82
2023/10/28 00:54:31;;;;;;;10.00;8.90;;;12.10;99.90;;;;;;5056707;28;20224;-86
2023/10/28 00:57:02;;;;;;;12.60;10.50;;;12.20;99.90;;;;;;5075716;28;20234;-86
2023/10/28 00:59:30;;;;;;;14.68;9.75;;;12.20;99.90;;;;;;5076296;28;20258;-82
2023/10/28 01:01:59;;;;;;;12.30;10.20;;;12.10;99.90;;;;;;5044517;28;20237;-86
2023/10/28 01:04:26;;;;;;;8.52;7.65;;;12.10;99.90;;;;;;5055953;28;20241;-82
2023/10/28 01:06:53;;;;;;;10.55;9.45;;;12.10;99.90;;;;;;5067800;28;20207;-81
2023/10/28 01:09:23;;;;;;;12.15;10.75;;;12.10;99.90;;;;;;5095750;28;20227;-85
2023/10/28 01:11:53;;;;;;;10.45;9.32;;;12.10;99.90;;;;;;5071104;28;20224;-83
2023/10/28 01:14:22;;;;;;;9.60;8.65;;;12.10;99.90;;;;;;5094247;28;20288;-83
2023/10/28 01:16:49;;;;;;;9.57;8.52;;;12.10;99.90;;;;;;5095935;28;20681;-81
2023/10/28 01:19:16;;;;;;;10.48;9.40;;;12.20;99.90;;;;;;5095922;28;20573;-81
2023/10/28 01:21:45;;;;;;;12.82;10.10;;;12.20;99.90;;;;;;5095423;28;20243;-80
2023/10/28 01:24:11;;;;;;;12.80;10.63;;;12.10;99.90;;;;;;5095129;28;20257;-85
2023/10/28 01:26:47;;;;;;;11.13;9.88;;;12.10;99.90;;;;;;5096124;28;20231;-85
2023/10/28 01:29:14;;;;;;;11.40;9.80;;;12.10;99.90;;;;;;5094893;28;20222;-81
2023/10/28 01:31:41;;;;;;;12.18;9.43;;;12.10;99.90;;;;;;5076495;28;20658;-86
2023/10/28 01:34:08;;;;;;;10.82;9.10;;;12.10;99.90;;;;;;5060015;28;20362;-84
2023/10/28 01:36:35;;;;;;;9.55;8.55;;;12.10;99.90;;;;;;5056508;28;20236;-85
2023/10/28 01:39:04;;;;;;;12.40;9.60;;;12.10;99.90;;;;;;5056249;28;20616;-86
2023/10/28 01:41:31;;;;;;;10.70;8.27;;;12.10;99.90;;;;;;5055031;28;20229;-85
2023/10/28 01:43:58;;;;;;;8.90;7.68;;;12.10;99.90;;;;;;5056428;28;20225;-86
2023/10/28 01:46:27;;;;;;;11.80;9.30;;;12.10;99.90;;;;;;5055501;28;20256;-80
2023/10/28 01:48:54;;;;;;;11.35;9.25;;;12.10;99.90;;;;;;5055917;28;20235;-81
2023/10/28 01:51:21;;;;;;;11.15;9.10;;;12.10;99.90;;;;;;5053328;28;20235;-85
2023/10/28 01:53:48;;;;;;;12.68;9.93;;;12.10;99.90;;;;;;5077837;28;20227;-85
2023/10/28 01:56:16;;;;;;;10.70;9.60;;;12.10;99.90;;;;;;5068477;28;20251;-85
2023/10/28 01:58:43;;;;;;;12.23;9.38;;;12.10;99.90;;;;;;5071452;28;20280;-86
2023/10/28 02:01:10;;;;;;;12.10;10.07;;;12.10;99.90;;;;;;5068131;28;20255;-80
2023/10/28 02:03:37;;;;;;;9.57;8.57;;;12.10;99.90;;;;;;5056081;28;20224;-85
2023/10/28 02:06:05;;;;;;;10.45;9.35;;;12.00;99.90;;;;;;5056158;28;20282;-86
2023/10/28 02:08:34;;;;;;;11.43;10.23;;;12.10;99.90;;;;;;5095588;28;20684;-85
2023/10/28 02:11:01;;;;;;;11.35;10.15;;;12.10;99.90;;;;;;5080262;28;20606;-86
2023/10/28 02:13:33;;;;;;;10.23;9.23;;;12.10;99.90;;;;;;5085139;28;20314;-85
2023/10/28 02:16:01;;;;;;;10.95;9.52;;;12.10;99.90;;;;;;5094868;28;20242;-86
2023/10/28 02:18:28;;;;;;;13.75;12.05;;;12.10;99.90;;;;;;5094880;28;20227;-86
2023/10/28 02:20:55;;;;;;;9.82;8.82;;;12.10;99.90;;;;;;5094428;28;20227;-81
2023/10/28 02:23:22;;;;;;;10.50;8.73;;;12.00;99.90;;;;;;5094150;28;20673;-81
2023/10/28 02:25:48;;;;;;;11.52;9.75;;;12.10;99.90;;;;;;5080493;28;20255;-86
2023/10/28 02:28:15;;;;;;;11.75;9.88;;;12.10;99.90;;;;;;5073628;28;20287;-81
2023/10/28 02:30:47;;;;;;;11.23;10.00;;;12.10;99.90;;;;;;5074990;28;20611;-86
2023/10/28 02:33:17;;;;;;;13.35;11.88;;;12.10;99.90;;;;;;5073557;28;20758;-81
2023/10/28 02:35:45;;;;;;;11.27;10.07;;;12.00;99.90;;;;;;5074350;28;20224;-80
2023/10/28 02:38:14;;;;;;;13.15;10.07;;;12.00;99.90;;;;;;5073202;28;20273;-81
2023/10/28 02:40:48;;;;;;;10.80;9.60;;;12.00;99.90;;;;;;5074846;28;20263;-85
2023/10/28 02:43:42;;;;;;;9.50;8.50;;;12.00;99.90;;;;;;5064480;28;20316;-85
2023/10/28 02:46:10;;;;;;;12.73;11.38;;;12.00;99.90;;;;;;5050357;28;20642;-87
2023/10/28 02:48:39;;;;;;;10.68;8.95;;;12.00;99.90;;;;;;5054526;28;20281;-80
2023/10/28 02:51:07;;;;;;;11.27;9.40;;;12.00;99.90;;;;;;5054074;28;20235;-85
2023/10/28 02:53:34;;;;;;;12.75;8.98;;;12.00;99.90;;;;;;5054126;28;20635;-85
2023/10/28 02:59:28;;;;;;;8.88;6.93;;;12.00;99.90;;;;;;5073511;28;20224;-85
2023/10/28 03:02:23;;;;;;;9.60;8.50;;;12.00;99.90;;;;;;5057949;28;20220;-85
2023/10/28 03:04:50;;;;;;;10.38;8.82;;;12.00;99.90;;;;;;5053724;28;20232;-85
2023/10/28 03:07:18;;;;;;;8.60;7.53;;;12.00;99.90;;;;;;5053063;28;20300;-86
2023/10/28 03:09:44;;;;;;;9.05;8.20;;;12.00;99.90;;;;;;5054321;28;20224;-81
2023/10/28 03:12:12;;;;;;;8.00;5.95;;;12.00;99.90;;;;;;5043091;28;20319;-82
2023/10/28 03:14:39;;;;;;;9.40;8.27;;;12.00;99.90;;;;;;5052659;28;20229;-81
2023/10/28 03:17:08;;;;;;;9.82;7.10;;;12.00;99.90;;;;;;5052508;28;20252;-86
2023/10/28 03:19:36;;;;;;;8.13;6.82;;;12.00;99.90;;;;;;5054026;28;20236;-87
2023/10/28 03:22:03;;;;;;;7.28;6.03;;;11.90;99.90;;;;;;5055518;28;20227;-81
2023/10/28 03:24:30;;;;;;;7.38;5.90;;;12.00;99.90;;;;;;5073359;28;20307;-82
2023/10/28 03:26:57;;;;;;;7.80;6.82;;;12.00;99.90;;;;;;5073523;28;20550;-81
2023/10/28 03:29:26;;;;;;;7.65;6.85;;;12.00;99.90;;;;;;5062618;28;20661;-82
2023/10/28 03:31:53;;;;;;;6.60;5.60;;;11.90;99.90;;;;;;5067196;28;20227;-86
2023/10/28 03:34:21;;;;;;;5.97;5.32;;;12.00;99.90;;;;;;5057262;28;20232;-86
2023/10/28 03:36:48;;;;;;;5.80;5.20;;;12.00;99.90;;;;;;5053941;28;20315;-81
2023/10/28 03:39:17;;;;;;;6.20;5.60;;;12.00;99.90;;;;;;5052517;28;20311;-81
2023/10/28 03:41:45;;;;;;;6.50;5.55;;;11.90;99.90;;;;;;5053790;28;20750;-81
2023/10/28 03:44:12;;;;;;;4.93;4.47;;;12.00;99.90;;;;;;5052363;28;20229;-81
2023/10/28 03:46:38;;;;;;;5.80;5.05;;;11.90;99.90;;;;;;5043550;28;20315;-81
2023/10/28 03:49:08;;;;;;;5.55;5.05;;;11.90;99.90;;;;;;5052723;28;20628;-81
2023/10/28 03:51:38;;;;;;;5.70;5.13;;;12.00;99.90;;;;;;5053462;28;20220;-86
2023/10/28 03:54:05;;;;;;;5.88;5.28;;;11.90;99.90;;;;;;5053237;28;20568;-81
2023/10/28 03:56:37;;;;;;;11.77;8.25;;;12.00;99.90;;;;;;5069923;28;20236;-86
2023/10/28 04:01:55;;;;;;;5.38;4.85;;;11.90;99.90;;;;;;5063620;28;20600;-81
2023/10/28 04:04:22;;;;;;;5.30;4.78;;;12.00;99.90;;;;;;5053434;28;20231;-81
2023/10/28 04:06:50;;;;;;;9.65;8.00;;;11.90;99.90;;;;;;5063781;28;20215;-86
2023/10/28 04:09:17;;;;;;;5.85;5.28;;;11.90;99.90;;;;;;5092871;28;20310;-81
2023/10/28 04:11:49;;;;;;;7.15;6.35;;;11.90;99.90;;;;;;5093632;28;20266;-81
2023/10/28 04:14:16;;;;;;;7.95;6.88;;;11.90;99.90;;;;;;5096355;28;20310;-86
2023/10/28 04:16:43;;;;;;;6.20;5.60;;;11.90;99.90;;;;;;5097854;28;20224;-86
2023/10/28 04:19:10;;;;;;;5.68;5.07;;;11.90;99.90;;;;;;5097574;28;20223;-87
2023/10/28 04:21:38;;;;;;;7.32;5.90;;;11.90;99.90;;;;;;5077143;28;20235;-82
2023/10/28 04:24:09;;;;;;;6.85;5.93;;;11.80;99.90;;;;;;5097569;28;20646;-81
2023/10/28 04:26:36;;;;;;;5.00;4.60;;;11.80;99.90;;;;;;5097575;28;20220;-82
2023/10/28 04:29:03;;;;;;;5.90;5.30;;;11.90;99.90;;;;;;5096777;28;20219;-88
2023/10/28 04:31:31;;;;;;;12.32;10.43;;;11.90;99.90;;;;;;5098528;28;20239;-80
2023/10/28 04:33:58;;;;;;;4.88;4.38;;;11.80;99.90;;;;;;5096031;28;20233;-81
2023/10/28 04:36:25;;;;;;;5.40;4.90;;;11.80;99.90;;;;;;5094682;28;20288;-87
2023/10/28 04:38:52;;;;;;;7.22;6.53;;;11.80;99.90;;;;;;5053924;28;20225;-83
2023/10/28 04:41:23;;;;;;;4.53;4.13;;;11.90;99.90;;;;;;5045849;28;20274;-87
2023/10/28 04:43:50;;;;;;;6.30;5.70;;;11.90;99.90;;;;;;5055512;28;20232;-87
2023/10/28 04:46:17;;;;;;;5.15;4.75;;;11.90;99.90;;;;;;5061926;28;20277;-87
2023/10/28 04:48:46;;;;;;;11.60;7.45;;;11.80;99.90;;;;;;5075304;28;20224;-81
2023/10/28 04:51:13;;;;;;;4.40;4.00;;;11.80;99.90;;;;;;5074976;28;20708;-88
2023/10/28 04:53:40;;;;;;;4.10;3.70;;;11.80;99.90;;;;;;5075344;28;20220;-88
2023/10/28 04:56:08;;;;;;;5.65;5.15;;;11.80;99.90;;;;;;5075761;28;20255;-82
2023/10/28 04:58:42;;;;;;;4.53;4.05;;;11.80;99.90;;;;;;5075994;28;20231;-88
2023/10/28 05:01:33;;;;;;;5.63;5.13;;;11.80;99.90;;;;;;5066172;28;20254;-87
2023/10/28 05:03:59;;;;;;;6.78;5.95;;;11.80;99.90;;;;;;5075654;28;20232;-82
2023/10/28 05:06:45;;;;;;;4.78;4.38;;;11.80;99.90;;;;;;5076211;28;20252;-88
2023/10/28 05:09:15;;;;;;;3.72;3.42;;;11.70;99.90;;;;;;5075705;28;20698;-82
2023/10/28 05:11:43;;;;;;;5.80;4.65;;;11.80;99.90;;;;;;5076167;28;20252;-81
2023/10/28 05:14:14;;;;;;;5.13;4.63;;;11.80;99.90;;;;;;5075150;28;20231;-81
2023/10/28 05:16:41;;;;;;;4.38;3.95;;;11.70;99.90;;;;;;5077100;28;20230;-87
2023/10/28 05:19:08;;;;;;;4.95;4.35;;;11.70;99.90;;;;;;5075564;28;20235;-82
2023/10/28 05:21:44;;;;;;;4.97;4.47;;;11.70;99.90;;;;;;5075299;28;20224;-88
2023/10/28 05:24:18;;;;;;;5.53;4.90;;;11.80;99.90;;;;;;5061714;28;20259;-88
2023/10/28 05:26:45;;;;;;;4.75;4.35;;;11.80;99.90;;;;;;5076279;28;20563;-82
2023/10/28 05:29:13;;;;;;;5.65;4.95;;;11.80;99.90;;;;;;5076141;28;20561;-88
2023/10/28 05:31:40;;;;;;;5.35;4.93;;;11.70;99.90;;;;;;5075365;28;20307;-88
2023/10/28 05:34:07;;;;;;;4.90;4.50;;;11.80;99.90;;;;;;5078677;28;20274;-81
2023/10/28 05:36:34;;;;;;;4.22;3.80;;;11.70;99.90;;;;;;5075460;28;20290;-82
2023/10/28 05:39:03;;;;;;;5.43;4.82;;;11.70;99.90;;;;;;5065824;28;20236;-81
2023/10/28 05:41:30;;;;;;;5.05;4.53;;;11.70;99.90;;;;;;5075304;28;20242;-81
2023/10/28 05:43:57;;;;;;;6.10;5.60;;;11.70;99.90;;;;;;5075865;28;20243;-82
2023/10/28 05:46:29;;;;;;;4.82;4.38;;;11.70;99.90;;;;;;5075055;28;20303;-87
2023/10/28 05:48:56;;;;;;;6.25;5.65;;;11.70;99.90;;;;;;5060822;28;20240;-81
2023/10/28 05:51:24;;;;;;;5.25;4.72;;;11.70;99.90;;;;;;5074907;28;20311;-82
2023/10/28 05:53:51;;;;;;;6.72;5.13;;;11.70;99.90;;;;;;5065665;28;20224;-82
2023/10/28 05:56:18;;;;;;;6.43;5.82;;;11.70;99.90;;;;;;5075195;28;20251;-81
2023/10/28 05:58:45;;;;;;;6.93;6.18;;;11.70;99.90;;;;;;5074652;28;20220;-87
2023/10/28 06:01:13;;;;;;;5.50;5.00;;;11.70;99.90;;;;;;5075629;28;20576;-81
2023/10/28 06:03:41;;;;;;;5.43;4.85;;;11.70;99.90;;;;;;5075016;28;20220;-81
2023/10/28 06:06:08;;;;;;;5.72;5.22;;;11.70;99.90;;;;;;5074891;28;20232;-88
2023/10/28 06:08:36;;;;;;;5.38;4.88;;;11.70;99.90;;;;;;5065648;28;20228;-82
2023/10/28 06:11:04;;;;;;;6.43;5.78;;;11.70;99.90;;;;;;5074433;28;20223;-81
2023/10/28 06:13:31;;;;;;;5.68;5.18;;;11.70;99.90;;;;;;5074785;28;20301;-81
2023/10/28 06:15:58;;;;;;;6.07;5.53;;;11.70;99.90;;;;;;5081801;28;20244;-88
2023/10/28 06:18:25;;;;;;;5.70;5.20;;;11.70;99.90;;;;;;5078217;28;20231;-88
2023/10/28 06:20:53;;;;;;;6.50;5.90;;;11.70;99.90;;;;;;5076673;28;20232;-88
2023/10/28 06:23:22;;;;;;;7.55;6.13;;;11.70;99.90;;;;;;5075963;28;20312;-88
2023/10/28 06:25:49;;;;;;;7.55;5.88;;;11.70;99.90;;;;;;5074633;28;20318;-82
2023/10/28 06:28:18;;;;;;;5.97;5.47;;;11.70;99.90;;;;;;5075003;28;20289;-82
2023/10/28 06:30:48;;;;;;;6.25;5.65;;;11.70;99.90;;;;;;5074488;28;20670;-82
2023/10/28 06:33:15;;;;;;;5.97;5.47;;;11.70;99.90;;;;;;5074906;28;20307;-81
2023/10/28 06:35:47;;;;;;;6.57;5.47;;;11.70;99.90;;;;;;5073588;28;20251;-81
2023/10/28 06:38:28;;;;;;;5.07;4.57;;;11.70;99.90;;;;;;5065269;28;20562;-82
2023/10/28 06:40:57;;;;;;;6.47;5.82;;;11.80;99.90;;;;;;5054930;28;20297;-87
2023/10/28 06:43:24;;;;;;;5.95;5.40;;;11.80;99.90;;;;;;5074243;28;20712;-88
2023/10/28 06:45:51;;;;;;;5.80;5.07;;;11.70;99.90;;;;;;5073986;28;20228;-88
2023/10/28 06:48:56;;;;;;;5.47;4.97;;;11.80;99.90;;;;;;5074857;28;20220;-81
2023/10/28 06:51:33;;;;;;;5.03;4.50;;;11.80;99.90;;;;;;5074600;28;20231;-88
2023/10/28 06:54:02;;;;;;;8.15;6.82;;;11.80;99.90;;;;;;5074836;28;20243;-88
2023/10/28 06:56:30;;;;;;;4.90;4.40;;;11.80;99.90;;;;;;5073458;28;20556;-88
2023/10/28 06:58:57;;;;;;;6.15;5.40;;;11.80;99.90;;;;;;5065771;28;20306;-81
2023/10/28 07:01:26;;;;;;;5.55;5.05;;;11.80;99.90;;;;;;5073725;28;20256;-81
2023/10/28 07:03:53;;;;;;;5.20;4.80;;;11.80;99.90;;;;;;5074110;28;20234;-88
2023/10/28 07:06:20;;;;;;;6.18;5.57;;;11.90;99.90;;;;;;5073672;28;20258;-88
2023/10/28 07:08:49;;;;;;;7.43;5.32;;;11.80;99.90;;;;;;5073638;28;20321;-81
2023/10/28 07:11:17;;;;;;;5.50;5.00;;;11.80;99.90;;;;;;5073388;28;20545;-82
2023/10/28 07:13:45;;;;;;;5.30;4.78;;;11.80;99.90;;;;;;5073863;28;20310;-81
2023/10/28 07:16:15;;;;;;;6.60;6.00;;;11.90;99.90;;;;;;5073511;28;20615;-82
2023/10/28 07:18:42;;;;;;;5.95;5.45;;;11.80;99.90;;;;;;5073930;28;20216;-82
2023/10/28 07:21:09;;;;;;;5.70;5.20;;;11.90;99.90;;;;;;5063506;28;20270;-82
2023/10/28 07:23:36;;;;;;;6.80;6.20;;;11.90;99.90;;;;;;5072494;28;20671;-81
2023/10/28 07:26:03;;;;;;;6.72;6.18;;;11.90;99.90;;;;;;5073837;28;20228;-82
2023/10/28 07:28:33;;;;;;;6.55;5.95;;;11.90;99.90;;;;;;5073479;28;20228;-82
2023/10/28 07:31:02;;;;;;;6.10;5.60;;;11.90;99.90;;;;;;5074012;28;20298;-81
2023/10/28 07:33:29;;;;;;;6.50;5.88;;;11.90;99.90;;;;;;5073342;28;20310;-81
2023/10/28 07:36:01;;;;;;;6.05;5.50;;;11.90;99.90;;;;;;5065244;28;20624;-80
2023/10/28 07:38:30;;;;;;;7.22;6.53;;;11.90;99.90;;;;;;5055166;28;20232;-80
2023/10/28 07:40:58;;;;;;;6.72;6.22;;;11.90;99.90;;;;;;5073622;28;20270;-80
2023/10/28 07:43:29;;;;;;;7.30;6.60;;;11.90;99.90;;;;;;5054005;28;20250;-80
2023/10/28 07:46:13;;;;;;;8.60;7.80;;;11.90;99.90;;;;;;5071067;28;20606;-81
2023/10/28 07:56:01;;;;;;;7.78;7.07;;;11.90;99.90;;;;;;5032207;28;20240;-79
2023/10/28 07:58:32;;;;;;;9.40;8.57;;;11.90;99.90;;;;;;4988803;28;20326;-81
2023/10/28 08:01:01;;;;;;;9.30;8.50;;;11.90;99.90;;;;;;5030137;28;20304;-80
2023/10/28 08:03:47;;;;;;;9.32;8.30;;;11.90;99.90;;;;;;5069478;28;20224;-81
2023/10/28 08:06:17;;;;;;;8.57;7.82;;;11.90;99.90;;;;;;5072328;28;20319;-81
2023/10/28 08:08:44;;;;;;;8.82;8.07;;;12.00;99.90;;;;;;5062369;28;20220;-80
2023/10/28 08:11:13;;;;;;;8.60;7.80;;;11.90;99.90;;;;;;5075062;28;20285;-81
2023/10/28 08:13:44;;;;;;;8.93;8.25;;;11.90;99.90;;;;;;5061927;28;20224;-80
2023/10/28 08:16:18;;;;;;;8.45;7.65;;;12.00;99.90;;;;;;5071162;28;20306;-80
2023/10/28 08:18:46;;;;;;;8.57;7.88;;;12.00;99.90;;;;;;5071292;28;20665;-80
2023/10/28 08:21:16;;;;;;;7.97;7.20;;;12.00;99.90;;;;;;5072808;28;20232;-80
2023/10/28 08:23:46;;;;;;;9.27;8.40;;;12.00;99.90;;;;;;5071653;28;20216;-81
2023/10/28 08:26:17;;;;;;;7.05;6.47;;;12.00;99.90;;;;;;5072846;28;20732;-80
2023/10/28 08:28:44;;;;;;;10.57;9.57;;;12.00;99.90;;;;;;5060412;28;20281;-81
2023/10/28 08:31:13;;;;;;;8.27;7.55;;;12.00;99.90;;;;;;5072253;28;20231;-80
2023/10/28 08:33:41;;;;;;;9.50;8.50;;;12.00;99.90;;;;;;5072907;28;20755;-81
2023/10/28 08:36:10;;;;;;;9.60;7.95;;;12.00;99.90;;;;;;5072416;28;20231;-81
2023/10/28 08:38:38;;;;;;;8.15;7.45;;;12.10;99.90;;;;;;5072390;28;20234;-80
2023/10/28 08:41:06;;;;;;;8.13;7.32;;;12.10;99.90;;;;;;5072783;28;20230;-86
2023/10/28 08:43:35;;;;;;;8.27;7.47;;;12.00;99.90;;;;;;5073665;28;20541;-86
2023/10/28 08:46:13;;;;;;;9.15;8.18;;;12.10;99.90;;;;;;5072515;28;20315;-87
2023/10/28 08:48:40;;;;;;;8.93;8.05;;;12.10;99.90;;;;;;5073628;28;20298;-86
2023/10/28 08:51:09;;;;;;;7.55;6.85;;;12.10;99.90;;;;;;5075944;28;20219;-81
2023/10/28 08:53:37;;;;;;;8.45;7.65;;;12.10;99.90;;;;;;5072659;28;20561;-88
2023/10/28 08:56:05;;;;;;;8.20;7.10;;;12.10;99.90;;;;;;5072560;28;20224;-86
2023/10/28 08:58:32;;;;;;;9.95;8.07;;;12.20;99.90;;;;;;5072619;28;20250;-80
2023/10/28 09:01:02;;;;;;;7.90;7.22;;;12.20;99.90;;;;;;5076353;28;20297;-80
2023/10/28 09:03:31;;;;;;;11.13;8.80;;;12.20;99.90;;;;;;5075201;28;20307;-80
2023/10/28 09:05:59;;;;;;;9.75;8.85;;;12.20;99.90;;;;;;5066217;28;20260;-80
2023/10/28 09:08:28;;;;;;;10.98;9.50;;;12.20;99.90;;;;;;5074963;28;20287;-86
2023/10/28 09:10:57;;;;;;;10.00;9.00;;;12.30;99.90;;;;;;5076303;28;20223;-80
2023/10/28 09:13:24;;;;;;;9.60;8.65;;;12.30;99.90;;;;;;5075842;28;20535;-80
2023/10/28 09:15:52;;;;;;;10.02;9.13;;;12.30;99.90;;;;;;5075850;28;20309;-81
2023/10/28 09:18:22;;;;;;;11.13;9.15;;;12.30;99.90;;;;;;5075819;28;20235;-86
2023/10/28 09:20:59;;;;;;;10.13;9.23;;;12.30;99.90;;;;;;5075511;28;20232;-86
2023/10/28 09:23:30;;;;;;;10.52;9.55;;;12.40;99.90;;;;;;5075367;28;20239;-85
2023/10/28 09:26:00;;;;;;;11.13;10.02;;;12.40;99.90;;;;;;5246247;22;20246;-87
2023/10/28 09:28:27;;;;;;;11.55;10.45;;;12.40;99.90;;;;;;5077661;28;20285;-87
2023/10/28 09:30:56;;;;;;;10.68;9.68;;;12.40;99.90;;;;;;5097342;28;20235;-87
2023/10/28 09:33:24;;;;;;;10.77;9.75;;;12.40;99.90;;;;;;5097138;28;20223;-87
2023/10/28 09:35:54;;;;;;;10.20;9.30;;;12.50;99.90;;;;;;5097407;28;20266;-80
2023/10/28 09:38:34;;;;;;;10.68;9.60;;;12.50;99.90;;;;;;5096898;28;20219;-87
2023/10/28 09:41:02;;;;;;;12.38;10.40;;;12.50;99.90;;;;;;5095503;28;20231;-81
2023/10/28 09:43:32;;;;;;;16.48;14.57;;;12.60;99.90;;;;;;5085516;28;20314;-81
2023/10/28 09:45:59;;;;;;;27.85;19.45;;;12.60;99.90;;;;;;5095738;28;20311;-87
2023/10/28 09:48:31;;;;;;;28.00;20.33;;;12.60;99.90;;;;;;5096181;28;20287;-87
2023/10/28 09:51:08;;;;;;;17.40;15.70;;;12.60;99.90;;;;;;5097009;28;20247;-87
2023/10/28 09:53:43;;;;;;;16.45;14.73;;;12.70;99.90;;;;;;5096941;28;20201;-85
2023/10/28 09:56:13;;;;;;;13.60;12.30;;;12.70;99.90;;;;;;5096016;28;20305;-80
2023/10/28 09:58:46;;;;;;;14.77;13.35;;;12.70;99.90;;;;;;5087474;28;20219;-86
2023/10/28 10:01:21;;;;;;;13.65;12.45;;;12.80;99.90;;;;;;5097533;28;20676;-80
2023/10/28 10:03:59;;;;;;;13.88;12.55;;;12.80;99.90;;;;;;5095064;28;20235;-86
2023/10/28 10:06:27;;;;;;;14.52;13.07;;;12.90;99.90;;;;;;5095987;28;20280;-80
2023/10/28 10:08:57;;;;;;;13.50;12.10;;;12.90;99.90;;;;;;5095154;28;20215;-80
2023/10/28 10:11:25;;;;;;;13.23;12.03;;;13.00;99.90;;;;;;5095159;28;20215;-87
2023/10/28 10:13:52;;;;;;;13.48;12.27;;;13.00;99.90;;;;;;5095606;28;20526;-86
2023/10/28 10:16:31;;;;;;;13.27;12.00;;;13.10;99.90;;;;;;5096293;28;20319;-86
2023/10/28 10:19:05;;;;;;;14.85;13.40;;;13.10;99.90;;;;;;5100651;28;20221;-87
2023/10/28 10:21:35;;;;;;;13.55;12.15;;;13.20;99.90;;;;;;5101995;28;20223;-86
2023/10/28 10:24:08;;;;;;;13.40;12.20;;;13.20;99.90;;;;;;5091978;28;20268;-87
2023/10/28 10:26:39;;;;;;;13.60;12.40;;;13.20;99.90;;;;;;5086617;28;20314;-87
2023/10/28 10:29:28;;;;;;;12.38;11.15;;;13.30;99.90;;;;;;5098387;28;20230;-86
2023/10/28 10:31:57;;;;;;;16.00;14.40;;;13.30;99.90;;;;;;5073343;28;20281;-86
2023/10/28 10:34:36;;;;;;;13.90;12.63;;;13.30;99.90;;;;;;5104940;28;20241;-78
2023/10/28 10:37:04;;;;;;;13.70;12.40;;;13.40;99.90;;;;;;5100172;28;20548;-80
2023/10/28 10:39:43;;;;;;;12.90;11.80;;;13.40;99.90;;;;;;5107319;28;20476;-81
2023/10/28 10:42:12;;;;;;;11.03;10.10;;;13.40;99.90;;;;;;5098487;28;20229;-81
2023/10/28 10:44:39;;;;;;;11.73;10.68;;;13.40;99.90;;;;;;5095065;28;20508;-81
2023/10/28 10:47:08;;;;;;;11.77;10.68;;;13.50;99.90;;;;;;5095741;28;20250;-82
2023/10/28 10:49:38;;;;;;;12.73;11.52;;;13.50;99.90;;;;;;5094823;28;20219;-80
2023/10/28 10:52:11;;;;;;;12.88;11.77;;;13.40;99.90;;;;;;5095672;28;20562;-81
2023/10/28 10:54:40;;;;;;;13.30;12.00;;;13.50;99.90;;;;;;5086163;28;20288;-81
2023/10/28 10:57:08;;;;;;;13.38;12.18;;;13.50;99.90;;;;;;5095225;28;20552;-81
2023/10/28 10:59:38;;;;;;;13.70;12.50;;;13.50;99.90;;;;;;5095264;28;20227;-87
2023/10/28 11:02:13;;;;;;;14.13;12.85;;;13.60;99.90;;;;;;5096421;28;20974;-87
2023/10/28 11:04:43;;;;;;;12.10;10.90;;;13.60;99.90;;;;;;5096876;28;20233;-86
2023/10/28 11:07:13;;;;;;;12.67;11.57;;;13.70;99.90;;;;;;5096661;28;20515;-86
2023/10/28 11:09:42;;;;;;;13.60;12.50;;;13.70;99.90;;;;;;5095023;28;20545;-80
2023/10/28 11:12:09;;;;;;;11.90;10.90;;;13.70;99.90;;;;;;5094789;28;20981;-80
2023/10/28 11:14:36;;;;;;;12.60;11.33;;;13.70;99.90;;;;;;5084649;28;20552;-80
2023/10/28 11:17:03;;;;;;;12.80;11.60;;;13.80;99.90;;;;;;5094729;28;20895;-79
2023/10/28 11:19:34;;;;;;;11.90;10.77;;;13.80;99.90;;;;;;5094098;28;20789;-80
2023/10/28 11:25:18;;;;;;;13.10;11.90;;;13.80;99.90;;;;;;5022380;28;20491;-87
2023/10/28 11:28:21;;;;;;;12.57;11.27;;;13.80;99.90;;;;;;5096715;28;20465;-87
2023/10/28 11:30:52;;;;;;;10.87;9.87;;;13.90;99.90;;;;;;5074216;28;20473;-81
2023/10/28 11:33:21;;;;;;;10.97;9.97;;;13.90;99.90;;;;;;5082992;28;20449;-80
2023/10/28 11:35:52;;;;;;;11.77;10.70;;;14.00;99.90;;;;;;5081030;28;20822;-81
2023/10/28 11:38:51;;;;;;;10.60;9.60;;;14.00;99.90;;;;;;5070258;28;20477;-81
2023/10/28 11:44:49;;;;;;;10.80;9.90;;;14.00;99.90;;;;;;5066320;28;20470;-81
2023/10/28 11:47:19;;;;;;;11.33;10.13;;;14.10;99.90;;;;;;5085021;28;20453;-81
2023/10/28 11:49:46;;;;;;;11.33;10.17;;;14.00;99.90;;;;;;5092975;28;20951;-81
2023/10/28 11:53:01;;;;;;;12.10;10.97;;;14.10;99.90;;;;;;5073757;28;20524;-81
2023/10/28 11:55:29;;;;;;;12.10;10.90;;;14.10;99.90;;;;;;5046739;28;20471;-81
2023/10/28 12:01:21;;;;;;;11.70;10.27;;;14.10;99.90;;;;;;5071820;28;20523;-86
2023/10/28 12:07:37;;;;;;;11.50;10.40;;;14.10;99.90;;;;;;4979000;28;20483;-80
2023/10/28 12:10:06;;;;;;;11.67;10.67;;;14.10;99.90;;;;;;5071477;28;20462;-81
2023/10/28 12:16:55;;;;;;;12.27;11.17;;;14.10;99.90;;;;;;5359690;22;20460;-80
2023/10/28 12:19:46;;;;;;;12.00;10.90;;;14.10;99.90;;;;;;5082250;28;20460;-81
2023/10/28 12:22:17;;;;;;;12.90;11.67;;;14.00;99.90;;;;;;5092271;28;20831;-81
2023/10/28 12:24:44;;;;;;;13.33;11.87;;;14.10;99.90;;;;;;5108067;28;20534;-81
2023/10/28 12:27:11;;;;;;;15.23;13.73;;;14.10;99.90;;;;;;5092673;28;20556;-81
2023/10/28 12:29:37;;;;;;;14.87;13.33;;;14.10;99.90;;;;;;5082680;28;20473;-81
2023/10/28 12:32:08;;;;;;;24.73;19.60;;;14.10;99.90;;;;;;5091550;28;20466;-81
2023/10/28 12:34:41;;;;;;;14.70;13.30;;;14.10;99.90;;;;;;5244793;22;20520;-81
2023/10/28 12:40:50;;;;;;;14.30;12.97;;;14.10;99.90;;;;;;5005433;28;20465;-87
2023/10/28 12:46:40;;;;;;;15.10;13.70;;;14.10;99.90;;;;;;5173622;22;20548;-81
2023/10/28 12:49:29;;;;;;;14.77;13.30;;;14.10;99.90;;;;;;5057100;28;20472;-81
2023/10/28 12:52:36;;;;;;;;;;;;;;;;;;;;;
2023/10/28 12:55:03;;;;;;;15.90;14.30;;;14.10;99.90;;;;;;5072739;28;20467;-81
2023/10/28 12:57:33;;;;;;;20.70;17.90;;;14.10;99.90;;;;;;5096620;28;20983;-81
2023/10/28 13:00:00;;;;;;;18.50;16.17;;;14.20;99.90;;;;;;5095960;28;20464;-81
2023/10/28 13:02:30;;;;;;;22.47;20.13;;;14.20;99.90;;;;;;5081343;28;20469;-87
2023/10/28 13:04:59;;;;;;;21.47;19.10;;;14.20;99.90;;;;;;5076348;28;20990;-87
2023/10/28 13:07:27;;;;;;;39.67;32.90;;;14.30;99.90;;;;;;5095699;28;20461;-87
2023/10/28 13:09:54;;;;;;;28.00;23.50;;;14.30;99.90;;;;;;5096091;28;20461;-81
2023/10/28 13:12:20;;;;;;;25.40;21.60;;;14.40;99.90;;;;;;5095767;28;20530;-81
2023/10/28 13:14:48;;;;;;;14.73;13.30;;;14.40;99.90;;;;;;5095822;28;20500;-81
2023/10/28 13:17:15;;;;;;;15.10;13.57;;;14.40;99.90;;;;;;5084863;28;20462;-81
2023/10/28 13:19:42;;;;;;;16.20;14.50;;;14.40;99.90;;;;;;5095127;28;20515;-80
2023/10/28 13:22:10;;;;;;;20.63;18.53;;;14.40;99.90;;;;;;5096326;28;20530;-80
2023/10/28 13:24:38;;;;;;;19.00;16.97;;;14.40;99.90;;;;;;5095353;28;20461;-87
2023/10/28 13:30:46;;;;;;;16.07;14.57;;;14.40;99.90;;;;;;4970561;28;20547;-81
2023/10/28 13:33:12;;;;;;;14.73;13.20;;;14.40;99.90;;;;;;5080589;28;20484;-81